sensor_id;sensor_type;location;lat;lon;timestamp;P1;durP1;ratioP1;P2;durP2;ratioP2
16039;SDS011;8124;48.634;8.120;2022-07-18T00:01:55;43.40;;;38.70;;
16039;SDS011;8124;48.634;8.120;2022-07-18T00:07:00;42.83;;;38.45;;
16039;SDS011;8124;48.634;8.120;2022-07-18T00:12:03;43.00;;;38.60;;
16039;SDS011;8124;48.634;8.120;2022-07-18T00:17:08;42.85;;;38.45;;
16039;SDS011;8124;48.634;8.120;2022-07-18T00:22:11;42.67;;;38.30;;
16039;SDS011;8124;48.634;8.120;2022-07-18T00:27:14;42.85;;;38.45;;
16039;SDS011;8124;48.634;8.120;2022-07-18T00:32:18;42.90;;;38.50;;
16039;SDS011;8124;48.634;8.120;2022-07-18T00:37:21;43.08;;;38.67;;
16039;SDS011;8124;48.634;8.120;2022-07-18T00:42:24;43.05;;;38.50;;
16039;SDS011;8124;48.634;8.120;2022-07-18T00:47:29;42.85;;;38.45;;
16039;SDS011;8124;48.634;8.120;2022-07-18T00:52:32;43.13;;;38.72;;
16039;SDS011;8124;48.634;8.120;2022-07-18T00:57:35;42.65;;;38.25;;
16039;SDS011;8124;48.634;8.120;2022-07-18T01:02:40;43.25;;;38.85;;
16039;SDS011;8124;48.634;8.120;2022-07-18T01:07:44;42.83;;;38.42;;
16039;SDS011;8124;48.634;8.120;2022-07-18T01:12:47;43.17;;;38.78;;
16039;SDS011;8124;48.634;8.120;2022-07-18T01:17:51;42.95;;;38.35;;
16039;SDS011;8124;48.634;8.120;2022-07-18T01:22:56;43.17;;;38.67;;
16039;SDS011;8124;48.634;8.120;2022-07-18T01:28:01;46.58;;;38.15;;
16039;SDS011;8124;48.634;8.120;2022-07-18T01:33:04;42.35;;;37.97;;
16039;SDS011;8124;48.634;8.120;2022-07-18T01:38:09;42.40;;;38.00;;
16039;SDS011;8124;48.634;8.120;2022-07-18T01:43:11;42.17;;;37.83;;
16039;SDS011;8124;48.634;8.120;2022-07-18T01:48:14;42.95;;;38.45;;
16039;SDS011;8124;48.634;8.120;2022-07-18T01:53:19;42.60;;;37.97;;
16039;SDS011;8124;48.634;8.120;2022-07-18T01:58:22;43.17;;;38.50;;
16039;SDS011;8124;48.634;8.120;2022-07-18T02:03:25;43.53;;;39.03;;
16039;SDS011;8124;48.634;8.120;2022-07-18T02:08:29;42.25;;;37.75;;
16039;SDS011;8124;48.634;8.120;2022-07-18T02:13:32;42.55;;;38.15;;
16039;SDS011;8124;48.634;8.120;2022-07-18T02:18:35;42.30;;;37.90;;
16039;SDS011;8124;48.634;8.120;2022-07-18T02:23:44;42.22;;;37.78;;
16039;SDS011;8124;48.634;8.120;2022-07-18T02:28:47;42.45;;;37.95;;
16039;SDS011;8124;48.634;8.120;2022-07-18T02:33:50;41.95;;;37.65;;
16039;SDS011;8124;48.634;8.120;2022-07-18T02:38:55;41.80;;;37.47;;
16039;SDS011;8124;48.634;8.120;2022-07-18T02:43:58;42.25;;;37.85;;
16039;SDS011;8124;48.634;8.120;2022-07-18T02:49:02;42.13;;;37.78;;
16039;SDS011;8124;48.634;8.120;2022-07-18T02:54:06;41.88;;;37.55;;
16039;SDS011;8124;48.634;8.120;2022-07-18T02:59:15;45.75;;;41.17;;
16039;SDS011;8124;48.634;8.120;2022-07-18T03:04:18;42.30;;;37.90;;
16039;SDS011;8124;48.634;8.120;2022-07-18T03:09:23;42.25;;;37.75;;
16039;SDS011;8124;48.634;8.120;2022-07-18T03:14:28;45.92;;;38.38;;
16039;SDS011;8124;48.634;8.120;2022-07-18T03:19:31;42.28;;;37.83;;
16039;SDS011;8124;48.634;8.120;2022-07-18T03:24:36;42.80;;;38.20;;
16039;SDS011;8124;48.634;8.120;2022-07-18T03:29:39;41.83;;;37.45;;
16039;SDS011;8124;48.634;8.120;2022-07-18T03:34:42;41.92;;;37.63;;
16039;SDS011;8124;48.634;8.120;2022-07-18T03:39:46;42.63;;;38.13;;
16039;SDS011;8124;48.634;8.120;2022-07-18T03:44:49;42.40;;;37.90;;
16039;SDS011;8124;48.634;8.120;2022-07-18T03:49:52;42.55;;;37.83;;
16039;SDS011;8124;48.634;8.120;2022-07-18T03:54:56;42.22;;;37.70;;
16039;SDS011;8124;48.634;8.120;2022-07-18T04:00:03;41.72;;;37.42;;
16039;SDS011;8124;48.634;8.120;2022-07-18T04:05:12;41.55;;;37.25;;
16039;SDS011;8124;48.634;8.120;2022-07-18T04:10:17;42.03;;;37.65;;
16039;SDS011;8124;48.634;8.120;2022-07-18T04:15:21;41.88;;;37.58;;
16039;SDS011;8124;48.634;8.120;2022-07-18T04:20:25;42.53;;;38.13;;
16039;SDS011;8124;48.634;8.120;2022-07-18T04:25:33;42.17;;;37.63;;
16039;SDS011;8124;48.634;8.120;2022-07-18T04:30:38;41.30;;;37.00;;
16039;SDS011;8124;48.634;8.120;2022-07-18T04:35:42;41.78;;;37.40;;
16039;SDS011;8124;48.634;8.120;2022-07-18T04:40:47;41.80;;;37.45;;
16039;SDS011;8124;48.634;8.120;2022-07-18T04:45:51;42.78;;;38.25;;
16039;SDS011;8124;48.634;8.120;2022-07-18T04:50:54;41.72;;;37.40;;
16039;SDS011;8124;48.634;8.120;2022-07-18T04:55:58;41.60;;;37.28;;
16039;SDS011;8124;48.634;8.120;2022-07-18T05:01:01;42.05;;;37.70;;
16039;SDS011;8124;48.634;8.120;2022-07-18T05:06:04;41.72;;;37.22;;
16039;SDS011;8124;48.634;8.120;2022-07-18T05:11:09;41.85;;;37.45;;
16039;SDS011;8124;48.634;8.120;2022-07-18T05:16:12;41.63;;;37.10;;
16039;SDS011;8124;48.634;8.120;2022-07-18T05:21:15;42.22;;;37.72;;
16039;SDS011;8124;48.634;8.120;2022-07-18T05:26:19;41.92;;;37.55;;
16039;SDS011;8124;48.634;8.120;2022-07-18T05:31:22;42.28;;;37.67;;
16039;SDS011;8124;48.634;8.120;2022-07-18T05:36:25;42.20;;;37.75;;
16039;SDS011;8124;48.634;8.120;2022-07-18T05:41:30;41.85;;;37.55;;
16039;SDS011;8124;48.634;8.120;2022-07-18T05:46:33;43.17;;;38.05;;
16039;SDS011;8124;48.634;8.120;2022-07-18T05:51:36;42.85;;;38.30;;
16039;SDS011;8124;48.634;8.120;2022-07-18T05:56:40;43.10;;;38.53;;
16039;SDS011;8124;48.634;8.120;2022-07-18T06:01:43;43.45;;;38.40;;
16039;SDS011;8124;48.634;8.120;2022-07-18T06:06:47;42.60;;;38.10;;
16039;SDS011;8124;48.634;8.120;2022-07-18T06:11:52;43.88;;;39.17;;
16039;SDS011;8124;48.634;8.120;2022-07-18T06:16:55;42.60;;;38.22;;
16039;SDS011;8124;48.634;8.120;2022-07-18T06:21:58;42.70;;;38.25;;
16039;SDS011;8124;48.634;8.120;2022-07-18T06:27:03;44.22;;;38.15;;
16039;SDS011;8124;48.634;8.120;2022-07-18T06:32:06;43.60;;;38.65;;
16039;SDS011;8124;48.634;8.120;2022-07-18T06:37:09;43.10;;;38.63;;
16039;SDS011;8124;48.634;8.120;2022-07-18T06:42:14;42.97;;;38.33;;
16039;SDS011;8124;48.634;8.120;2022-07-18T06:47:17;43.22;;;38.83;;
16039;SDS011;8124;48.634;8.120;2022-07-18T06:52:20;43.58;;;38.95;;
16039;SDS011;8124;48.634;8.120;2022-07-18T06:57:25;43.70;;;39.13;;
16039;SDS011;8124;48.634;8.120;2022-07-18T07:02:28;43.78;;;39.13;;
16039;SDS011;8124;48.634;8.120;2022-07-18T07:07:31;44.35;;;39.60;;
16039;SDS011;8124;48.634;8.120;2022-07-18T07:12:39;44.15;;;39.65;;
16039;SDS011;8124;48.634;8.120;2022-07-18T07:17:42;43.50;;;38.83;;
16039;SDS011;8124;48.634;8.120;2022-07-18T07:22:46;43.67;;;39.17;;
16039;SDS011;8124;48.634;8.120;2022-07-18T07:27:52;43.45;;;38.97;;
16039;SDS011;8124;48.634;8.120;2022-07-18T07:32:55;43.33;;;38.75;;
16039;SDS011;8124;48.634;8.120;2022-07-18T07:37:58;43.90;;;39.10;;
16039;SDS011;8124;48.634;8.120;2022-07-18T07:43:06;44.00;;;39.28;;
16039;SDS011;8124;48.634;8.120;2022-07-18T07:48:11;44.22;;;39.53;;
16039;SDS011;8124;48.634;8.120;2022-07-18T07:53:13;44.03;;;39.42;;
16039;SDS011;8124;48.634;8.120;2022-07-18T07:58:18;44.25;;;39.55;;
16039;SDS011;8124;48.634;8.120;2022-07-18T08:03:21;43.88;;;39.17;;
16039;SDS011;8124;48.634;8.120;2022-07-18T08:08:24;44.75;;;39.58;;
16039;SDS011;8124;48.634;8.120;2022-07-18T08:13:28;44.22;;;39.63;;
16039;SDS011;8124;48.634;8.120;2022-07-18T08:18:32;44.60;;;40.00;;
16039;SDS011;8124;48.634;8.120;2022-07-18T08:23:34;44.03;;;39.42;;
16039;SDS011;8124;48.634;8.120;2022-07-18T08:28:39;44.30;;;39.58;;
16039;SDS011;8124;48.634;8.120;2022-07-18T08:33:42;44.47;;;39.63;;
16039;SDS011;8124;48.634;8.120;2022-07-18T08:38:45;44.20;;;39.50;;
16039;SDS011;8124;48.634;8.120;2022-07-18T08:43:50;43.95;;;39.47;;
16039;SDS011;8124;48.634;8.120;2022-07-18T08:48:53;43.95;;;39.40;;
16039;SDS011;8124;48.634;8.120;2022-07-18T08:53:56;44.65;;;39.95;;
16039;SDS011;8124;48.634;8.120;2022-07-18T08:59:01;44.83;;;39.92;;
16039;SDS011;8124;48.634;8.120;2022-07-18T09:04:06;44.40;;;39.72;;
16039;SDS011;8124;48.634;8.120;2022-07-18T09:09:21;44.70;;;39.83;;
16039;SDS011;8124;48.634;8.120;2022-07-18T09:14:29;44.80;;;40.22;;
16039;SDS011;8124;48.634;8.120;2022-07-18T09:19:33;44.60;;;39.65;;
16039;SDS011;8124;48.634;8.120;2022-07-18T09:24:48;44.65;;;39.85;;
16039;SDS011;8124;48.634;8.120;2022-07-18T09:30:09;44.17;;;39.63;;
16039;SDS011;8124;48.634;8.120;2022-07-18T09:35:24;44.50;;;39.88;;
16039;SDS011;8124;48.634;8.120;2022-07-18T09:40:30;44.63;;;40.03;;
16039;SDS011;8124;48.634;8.120;2022-07-18T09:45:37;44.45;;;39.85;;
16039;SDS011;8124;48.634;8.120;2022-07-18T09:50:42;45.03;;;40.25;;
16039;SDS011;8124;48.634;8.120;2022-07-18T09:55:52;44.35;;;39.85;;
16039;SDS011;8124;48.634;8.120;2022-07-18T10:00:58;44.85;;;40.28;;
16039;SDS011;8124;48.634;8.120;2022-07-18T10:06:03;44.83;;;40.22;;
16039;SDS011;8124;48.634;8.120;2022-07-18T10:11:06;44.88;;;40.22;;
16039;SDS011;8124;48.634;8.120;2022-07-18T10:16:11;46.58;;;40.50;;
16039;SDS011;8124;48.634;8.120;2022-07-18T10:21:14;45.38;;;40.58;;
16039;SDS011;8124;48.634;8.120;2022-07-18T10:26:22;45.60;;;40.65;;
16039;SDS011;8124;48.634;8.120;2022-07-18T10:31:28;47.65;;;40.70;;
16039;SDS011;8124;48.634;8.120;2022-07-18T10:36:33;46.17;;;41.10;;
16039;SDS011;8124;48.634;8.120;2022-07-18T10:47:17;44.95;;;40.35;;
16039;SDS011;8124;48.634;8.120;2022-07-18T10:58:15;45.55;;;40.78;;
16039;SDS011;8124;48.634;8.120;2022-07-18T11:03:27;45.30;;;40.65;;
16039;SDS011;8124;48.634;8.120;2022-07-18T11:08:31;45.38;;;40.55;;
16039;SDS011;8124;48.634;8.120;2022-07-18T11:13:35;45.47;;;40.95;;
16039;SDS011;8124;48.634;8.120;2022-07-18T11:24:22;45.42;;;40.63;;
16039;SDS011;8124;48.634;8.120;2022-07-18T11:29:26;45.97;;;41.30;;
16039;SDS011;8124;48.634;8.120;2022-07-18T11:34:31;45.83;;;41.20;;
16039;SDS011;8124;48.634;8.120;2022-07-18T11:39:48;46.70;;;41.42;;
16039;SDS011;8124;48.634;8.120;2022-07-18T11:44:56;45.60;;;41.00;;
16039;SDS011;8124;48.634;8.120;2022-07-18T11:50:01;46.15;;;41.42;;
16039;SDS011;8124;48.634;8.120;2022-07-18T11:55:05;46.15;;;41.28;;
16039;SDS011;8124;48.634;8.120;2022-07-18T12:00:16;45.75;;;41.05;;
16039;SDS011;8124;48.634;8.120;2022-07-18T12:05:30;45.90;;;41.25;;
16039;SDS011;8124;48.634;8.120;2022-07-18T12:10:34;45.92;;;41.30;;
16039;SDS011;8124;48.634;8.120;2022-07-18T12:15:37;45.92;;;41.33;;
16039;SDS011;8124;48.634;8.120;2022-07-18T12:20:43;47.58;;;41.60;;
16039;SDS011;8124;48.634;8.120;2022-07-18T12:25:55;46.00;;;41.40;;
16039;SDS011;8124;48.634;8.120;2022-07-18T12:30:59;45.95;;;41.35;;
16039;SDS011;8124;48.634;8.120;2022-07-18T12:36:04;46.35;;;41.53;;
16039;SDS011;8124;48.634;8.120;2022-07-18T12:41:07;46.20;;;41.40;;
16039;SDS011;8124;48.634;8.120;2022-07-18T12:46:10;46.40;;;41.60;;
16039;SDS011;8124;48.634;8.120;2022-07-18T12:51:15;46.10;;;41.50;;
16039;SDS011;8124;48.634;8.120;2022-07-18T12:56:18;46.03;;;41.40;;
16039;SDS011;8124;48.634;8.120;2022-07-18T13:01:21;45.90;;;41.05;;
16039;SDS011;8124;48.634;8.120;2022-07-18T13:06:26;46.58;;;41.70;;
16039;SDS011;8124;48.634;8.120;2022-07-18T13:11:29;46.72;;;41.72;;
16039;SDS011;8124;48.634;8.120;2022-07-18T13:16:33;46.78;;;41.50;;
16039;SDS011;8124;48.634;8.120;2022-07-18T13:21:37;46.47;;;41.58;;
16039;SDS011;8124;48.634;8.120;2022-07-18T13:26:40;46.60;;;41.65;;
16039;SDS011;8124;48.634;8.120;2022-07-18T13:31:44;45.92;;;41.33;;
16039;SDS011;8124;48.634;8.120;2022-07-18T13:36:49;46.88;;;41.88;;
16039;SDS011;8124;48.634;8.120;2022-07-18T13:41:53;50.45;;;42.42;;
16039;SDS011;8124;48.634;8.120;2022-07-18T13:46:56;46.60;;;41.70;;
16039;SDS011;8124;48.634;8.120;2022-07-18T13:52:01;46.45;;;41.75;;
16039;SDS011;8124;48.634;8.120;2022-07-18T13:57:10;46.08;;;41.22;;
16039;SDS011;8124;48.634;8.120;2022-07-18T14:02:13;46.65;;;41.85;;
16039;SDS011;8124;48.634;8.120;2022-07-18T14:07:18;46.22;;;41.63;;
16039;SDS011;8124;48.634;8.120;2022-07-18T14:12:21;46.38;;;41.65;;
16039;SDS011;8124;48.634;8.120;2022-07-18T14:17:24;46.42;;;41.72;;
16039;SDS011;8124;48.634;8.120;2022-07-18T14:22:28;47.13;;;42.45;;
16039;SDS011;8124;48.634;8.120;2022-07-18T14:27:32;47.22;;;42.30;;
16039;SDS011;8124;48.634;8.120;2022-07-18T14:32:35;47.13;;;42.42;;
16039;SDS011;8124;48.634;8.120;2022-07-18T14:37:39;46.85;;;42.15;;
16039;SDS011;8124;48.634;8.120;2022-07-18T14:42:43;47.25;;;42.45;;
16039;SDS011;8124;48.634;8.120;2022-07-18T14:47:46;47.63;;;42.55;;
16039;SDS011;8124;48.634;8.120;2022-07-18T14:52:50;47.33;;;42.60;;
16039;SDS011;8124;48.634;8.120;2022-07-18T14:57:59;46.85;;;42.13;;
16039;SDS011;8124;48.634;8.120;2022-07-18T15:03:04;46.33;;;41.75;;
16039;SDS011;8124;48.634;8.120;2022-07-18T15:08:16;46.35;;;41.70;;
16039;SDS011;8124;48.634;8.120;2022-07-18T15:13:19;46.70;;;42.08;;
16039;SDS011;8124;48.634;8.120;2022-07-18T15:18:22;46.45;;;41.65;;
16039;SDS011;8124;48.634;8.120;2022-07-18T15:23:44;46.58;;;41.85;;
16039;SDS011;8124;48.634;8.120;2022-07-18T15:28:48;46.92;;;41.95;;
16039;SDS011;8124;48.634;8.120;2022-07-18T15:33:51;46.58;;;41.97;;
16039;SDS011;8124;48.634;8.120;2022-07-18T15:38:57;46.17;;;41.53;;
16039;SDS011;8124;48.634;8.120;2022-07-18T15:44:00;46.85;;;42.05;;
16039;SDS011;8124;48.634;8.120;2022-07-18T15:49:03;47.08;;;42.28;;
16039;SDS011;8124;48.634;8.120;2022-07-18T15:54:08;47.05;;;42.25;;
16039;SDS011;8124;48.634;8.120;2022-07-18T15:59:11;46.80;;;42.00;;
16039;SDS011;8124;48.634;8.120;2022-07-18T16:04:15;50.35;;;42.13;;
16039;SDS011;8124;48.634;8.120;2022-07-18T16:09:19;46.75;;;41.97;;
16039;SDS011;8124;48.634;8.120;2022-07-18T16:14:27;47.42;;;42.53;;
16039;SDS011;8124;48.634;8.120;2022-07-18T16:19:30;46.55;;;41.75;;
16039;SDS011;8124;48.634;8.120;2022-07-18T16:24:34;46.97;;;42.03;;
16039;SDS011;8124;48.634;8.120;2022-07-18T16:29:38;46.45;;;41.75;;
16039;SDS011;8124;48.634;8.120;2022-07-18T16:34:44;46.42;;;41.83;;
16039;SDS011;8124;48.634;8.120;2022-07-18T16:39:49;47.03;;;41.97;;
16039;SDS011;8124;48.634;8.120;2022-07-18T16:44:52;46.97;;;42.03;;
16039;SDS011;8124;48.634;8.120;2022-07-18T16:49:59;46.45;;;41.85;;
16039;SDS011;8124;48.634;8.120;2022-07-18T17:00:13;46.42;;;41.85;;
16039;SDS011;8124;48.634;8.120;2022-07-18T17:05:18;46.92;;;42.15;;
16039;SDS011;8124;48.634;8.120;2022-07-18T17:10:29;46.65;;;41.95;;
16039;SDS011;8124;48.634;8.120;2022-07-18T17:15:33;46.75;;;42.15;;
16039;SDS011;8124;48.634;8.120;2022-07-18T17:20:37;46.33;;;41.70;;
16039;SDS011;8124;48.634;8.120;2022-07-18T17:25:42;47.00;;;42.03;;
16039;SDS011;8124;48.634;8.120;2022-07-18T17:36:10;46.65;;;41.92;;
16039;SDS011;8124;48.634;8.120;2022-07-18T17:41:16;47.22;;;42.35;;
16039;SDS011;8124;48.634;8.120;2022-07-18T17:46:21;46.10;;;41.50;;
16039;SDS011;8124;48.634;8.120;2022-07-18T17:51:30;49.55;;;44.20;;
16039;SDS011;8124;48.634;8.120;2022-07-18T17:56:35;46.97;;;42.15;;
16039;SDS011;8124;48.634;8.120;2022-07-18T18:01:47;46.55;;;41.95;;
16039;SDS011;8124;48.634;8.120;2022-07-18T18:06:50;46.05;;;41.35;;
16039;SDS011;8124;48.634;8.120;2022-07-18T18:11:55;46.58;;;41.88;;
16039;SDS011;8124;48.634;8.120;2022-07-18T18:17:08;46.55;;;41.80;;
16039;SDS011;8124;48.634;8.120;2022-07-18T18:22:17;50.80;;;42.03;;
16039;SDS011;8124;48.634;8.120;2022-07-18T18:27:23;46.40;;;41.70;;
16039;SDS011;8124;48.634;8.120;2022-07-18T18:32:26;47.08;;;42.17;;
16039;SDS011;8124;48.634;8.120;2022-07-18T18:37:29;47.38;;;42.38;;
16039;SDS011;8124;48.634;8.120;2022-07-18T18:42:42;46.47;;;41.88;;
16039;SDS011;8124;48.634;8.120;2022-07-18T18:47:47;47.05;;;42.25;;
16039;SDS011;8124;48.634;8.120;2022-07-18T18:52:51;46.90;;;42.28;;
16039;SDS011;8124;48.634;8.120;2022-07-18T18:58:01;46.92;;;42.28;;
16039;SDS011;8124;48.634;8.120;2022-07-18T19:03:04;46.38;;;41.78;;
16039;SDS011;8124;48.634;8.120;2022-07-18T19:08:07;46.90;;;42.08;;
16039;SDS011;8124;48.634;8.120;2022-07-18T19:13:12;48.03;;;43.13;;
16039;SDS011;8124;48.634;8.120;2022-07-18T19:18:23;47.38;;;42.58;;
16039;SDS011;8124;48.634;8.120;2022-07-18T19:23:26;46.38;;;41.72;;
16039;SDS011;8124;48.634;8.120;2022-07-18T19:28:33;46.88;;;42.17;;
16039;SDS011;8124;48.634;8.120;2022-07-18T19:33:39;46.65;;;41.97;;
16039;SDS011;8124;48.634;8.120;2022-07-18T19:38:43;46.95;;;42.05;;
16039;SDS011;8124;48.634;8.120;2022-07-18T19:43:47;46.58;;;41.85;;
16039;SDS011;8124;48.634;8.120;2022-07-18T19:48:50;46.92;;;42.03;;
16039;SDS011;8124;48.634;8.120;2022-07-18T19:53:53;46.53;;;41.92;;
16039;SDS011;8124;48.634;8.120;2022-07-18T19:58:58;45.90;;;41.20;;
16039;SDS011;8124;48.634;8.120;2022-07-18T20:04:01;47.10;;;42.20;;
16039;SDS011;8124;48.634;8.120;2022-07-18T20:14:27;47.03;;;42.42;;
16039;SDS011;8124;48.634;8.120;2022-07-18T20:19:30;46.95;;;42.00;;
16039;SDS011;8124;48.634;8.120;2022-07-18T20:24:33;47.42;;;42.55;;
16039;SDS011;8124;48.634;8.120;2022-07-18T20:29:54;46.15;;;41.53;;
16039;SDS011;8124;48.634;8.120;2022-07-18T20:34:57;46.90;;;42.00;;
16039;SDS011;8124;48.634;8.120;2022-07-18T20:40:00;46.47;;;41.88;;
16039;SDS011;8124;48.634;8.120;2022-07-18T20:45:05;47.33;;;42.33;;
16039;SDS011;8124;48.634;8.120;2022-07-18T20:50:10;45.83;;;41.22;;
16039;SDS011;8124;48.634;8.120;2022-07-18T20:55:13;46.53;;;41.72;;
16039;SDS011;8124;48.634;8.120;2022-07-18T21:00:20;46.85;;;41.95;;
16039;SDS011;8124;48.634;8.120;2022-07-18T21:05:23;45.55;;;40.95;;
16039;SDS011;8124;48.634;8.120;2022-07-18T21:10:26;45.90;;;41.30;;
16039;SDS011;8124;48.634;8.120;2022-07-18T21:15:30;46.05;;;41.35;;
16039;SDS011;8124;48.634;8.120;2022-07-18T21:20:33;46.20;;;41.60;;
16039;SDS011;8124;48.634;8.120;2022-07-18T21:25:37;46.00;;;41.40;;
16039;SDS011;8124;48.634;8.120;2022-07-18T21:30:41;45.95;;;41.15;;
16039;SDS011;8124;48.634;8.120;2022-07-18T21:35:44;46.28;;;41.63;;
16039;SDS011;8124;48.634;8.120;2022-07-18T21:40:47;46.88;;;41.95;;
16039;SDS011;8124;48.634;8.120;2022-07-18T21:45:51;45.75;;;41.15;;
16039;SDS011;8124;48.634;8.120;2022-07-18T21:50:56;45.75;;;41.15;;
16039;SDS011;8124;48.634;8.120;2022-07-18T21:55:59;45.65;;;41.08;;
16039;SDS011;8124;48.634;8.120;2022-07-18T22:01:05;46.53;;;41.47;;
16039;SDS011;8124;48.634;8.120;2022-07-18T22:06:08;45.67;;;41.03;;
16039;SDS011;8124;48.634;8.120;2022-07-18T22:11:11;46.20;;;41.30;;
16039;SDS011;8124;48.634;8.120;2022-07-18T22:16:15;45.55;;;40.80;;
16039;SDS011;8124;48.634;8.120;2022-07-18T22:21:21;45.22;;;40.55;;
16039;SDS011;8124;48.634;8.120;2022-07-18T22:26:24;45.65;;;40.95;;
16039;SDS011;8124;48.634;8.120;2022-07-18T22:31:29;45.83;;;40.95;;
16039;SDS011;8124;48.634;8.120;2022-07-18T22:36:33;45.78;;;41.00;;
16039;SDS011;8124;48.634;8.120;2022-07-18T22:41:36;45.70;;;41.08;;
16039;SDS011;8124;48.634;8.120;2022-07-18T22:46:40;45.45;;;40.85;;
16039;SDS011;8124;48.634;8.120;2022-07-18T22:51:44;46.05;;;41.15;;
16039;SDS011;8124;48.634;8.120;2022-07-18T22:56:47;45.72;;;40.92;;
16039;SDS011;8124;48.634;8.120;2022-07-18T23:01:52;45.50;;;40.90;;
16039;SDS011;8124;48.634;8.120;2022-07-18T23:06:55;45.40;;;40.75;;
16039;SDS011;8124;48.634;8.120;2022-07-18T23:11:59;44.95;;;40.45;;
16039;SDS011;8124;48.634;8.120;2022-07-18T23:17:03;45.38;;;40.58;;
16039;SDS011;8124;48.634;8.120;2022-07-18T23:22:06;45.42;;;40.60;;
16039;SDS011;8124;48.634;8.120;2022-07-18T23:27:09;44.55;;;40.03;;
16039;SDS011;8124;48.634;8.120;2022-07-18T23:32:13;45.17;;;40.58;;
16039;SDS011;8124;48.634;8.120;2022-07-18T23:37:17;45.20;;;40.55;;
16039;SDS011;8124;48.634;8.120;2022-07-18T23:42:20;45.20;;;40.60;;
16039;SDS011;8124;48.634;8.120;2022-07-18T23:47:25;45.30;;;40.60;;
16039;SDS011;8124;48.634;8.120;2022-07-18T23:52:29;45.47;;;40.85;;
16039;SDS011;8124;48.634;8.120;2022-07-18T23:57:32;45.10;;;40.40;;
